sensor_id;sensor_type;location;lat;lon;timestamp;P1;durP1;ratioP1;P2;durP2;ratioP2
22995;SDS011;11664;49.774;8.650;2024-02-21T00:01:21;8.07;;;6.43;;
22995;SDS011;11664;49.774;8.650;2024-02-21T00:03:47;8.43;;;7.60;;
22995;SDS011;11664;49.774;8.650;2024-02-21T00:06:13;9.05;;;6.43;;
22995;SDS011;11664;49.774;8.650;2024-02-21T00:08:38;14.85;;;7.38;;
22995;SDS011;11664;49.774;8.650;2024-02-21T00:11:04;9.05;;;7.38;;
22995;SDS011;11664;49.774;8.650;2024-02-21T00:13:29;10.90;;;6.07;;
22995;SDS011;11664;49.774;8.650;2024-02-21T00:15:55;9.13;;;5.88;;
22995;SDS011;11664;49.774;8.650;2024-02-21T00:18:21;9.60;;;6.55;;
22995;SDS011;11664;49.774;8.650;2024-02-21T00:20:46;12.07;;;5.25;;
22995;SDS011;11664;49.774;8.650;2024-02-21T00:23:13;7.65;;;6.15;;
22995;SDS011;11664;49.774;8.650;2024-02-21T00:25:38;10.95;;;6.65;;
22995;SDS011;11664;49.774;8.650;2024-02-21T00:28:04;13.60;;;6.95;;
22995;SDS011;11664;49.774;8.650;2024-02-21T00:30:31;9.57;;;7.28;;
22995;SDS011;11664;49.774;8.650;2024-02-21T00:32:56;14.20;;;7.50;;
22995;SDS011;11664;49.774;8.650;2024-02-21T00:35:22;12.05;;;7.25;;
22995;SDS011;11664;49.774;8.650;2024-02-21T00:37:47;7.60;;;6.57;;
22995;SDS011;11664;49.774;8.650;2024-02-21T00:40:13;9.50;;;5.72;;
22995;SDS011;11664;49.774;8.650;2024-02-21T00:42:44;10.25;;;6.55;;
22995;SDS011;11664;49.774;8.650;2024-02-21T00:45:10;8.23;;;6.53;;
22995;SDS011;11664;49.774;8.650;2024-02-21T00:47:36;7.88;;;6.18;;
22995;SDS011;11664;49.774;8.650;2024-02-21T00:50:02;9.07;;;6.75;;
22995;SDS011;11664;49.774;8.650;2024-02-21T00:52:27;7.60;;;7.05;;
22995;SDS011;11664;49.774;8.650;2024-02-21T00:54:53;16.05;;;6.97;;
22995;SDS011;11664;49.774;8.650;2024-02-21T00:57:19;14.40;;;8.43;;
22995;SDS011;11664;49.774;8.650;2024-02-21T00:59:44;12.10;;;8.10;;
22995;SDS011;11664;49.774;8.650;2024-02-21T01:02:10;8.35;;;7.28;;
22995;SDS011;11664;49.774;8.650;2024-02-21T01:04:35;16.40;;;7.95;;
22995;SDS011;11664;49.774;8.650;2024-02-21T01:07:01;7.97;;;5.63;;
22995;SDS011;11664;49.774;8.650;2024-02-21T01:09:27;12.98;;;5.53;;
22995;SDS011;11664;49.774;8.650;2024-02-21T01:11:52;8.05;;;5.15;;
22995;SDS011;11664;49.774;8.650;2024-02-21T01:14:18;6.63;;;5.25;;
22995;SDS011;11664;49.774;8.650;2024-02-21T01:16:44;5.93;;;5.13;;
22995;SDS011;11664;49.774;8.650;2024-02-21T01:19:09;8.02;;;5.80;;
22995;SDS011;11664;49.774;8.650;2024-02-21T01:21:35;8.50;;;5.68;;
22995;SDS011;11664;49.774;8.650;2024-02-21T01:24:00;9.48;;;6.43;;
22995;SDS011;11664;49.774;8.650;2024-02-21T01:26:26;7.85;;;5.82;;
22995;SDS011;11664;49.774;8.650;2024-02-21T01:28:52;10.25;;;6.60;;
22995;SDS011;11664;49.774;8.650;2024-02-21T01:31:18;7.53;;;5.68;;
22995;SDS011;11664;49.774;8.650;2024-02-21T01:33:43;7.03;;;5.68;;
22995;SDS011;11664;49.774;8.650;2024-02-21T01:36:09;8.43;;;5.70;;
22995;SDS011;11664;49.774;8.650;2024-02-21T01:38:34;9.48;;;8.52;;
22995;SDS011;11664;49.774;8.650;2024-02-21T01:41:00;13.43;;;9.55;;
22995;SDS011;11664;49.774;8.650;2024-02-21T01:43:26;7.85;;;6.25;;
22995;SDS011;11664;49.774;8.650;2024-02-21T01:45:52;10.80;;;7.63;;
22995;SDS011;11664;49.774;8.650;2024-02-21T01:48:19;9.35;;;8.15;;
22995;SDS011;11664;49.774;8.650;2024-02-21T01:50:46;8.25;;;5.38;;
22995;SDS011;11664;49.774;8.650;2024-02-21T01:53:13;7.80;;;5.85;;
22995;SDS011;11664;49.774;8.650;2024-02-21T01:55:46;9.57;;;8.68;;
22995;SDS011;11664;49.774;8.650;2024-02-21T01:58:13;10.38;;;9.35;;
22995;SDS011;11664;49.774;8.650;2024-02-21T02:00:40;11.43;;;6.97;;
22995;SDS011;11664;49.774;8.650;2024-02-21T02:03:07;6.97;;;4.90;;
22995;SDS011;11664;49.774;8.650;2024-02-21T02:05:35;6.22;;;4.75;;
22995;SDS011;11664;49.774;8.650;2024-02-21T02:08:01;7.05;;;6.18;;
22995;SDS011;11664;49.774;8.650;2024-02-21T02:10:26;11.38;;;10.35;;
22995;SDS011;11664;49.774;8.650;2024-02-21T02:12:52;14.00;;;8.73;;
22995;SDS011;11664;49.774;8.650;2024-02-21T02:15:17;16.58;;;15.32;;
22995;SDS011;11664;49.774;8.650;2024-02-21T02:17:43;18.45;;;17.05;;
22995;SDS011;11664;49.774;8.650;2024-02-21T02:20:08;17.30;;;15.90;;
22995;SDS011;11664;49.774;8.650;2024-02-21T02:22:34;10.93;;;9.63;;
22995;SDS011;11664;49.774;8.650;2024-02-21T02:25:02;8.85;;;7.50;;
22995;SDS011;11664;49.774;8.650;2024-02-21T02:27:28;7.10;;;5.85;;
22995;SDS011;11664;49.774;8.650;2024-02-21T02:29:54;7.85;;;5.18;;
22995;SDS011;11664;49.774;8.650;2024-02-21T02:32:19;7.07;;;6.18;;
22995;SDS011;11664;49.774;8.650;2024-02-21T02:34:45;8.57;;;7.78;;
22995;SDS011;11664;49.774;8.650;2024-02-21T02:37:10;7.93;;;5.85;;
22995;SDS011;11664;49.774;8.650;2024-02-21T02:39:36;6.93;;;6.35;;
22995;SDS011;11664;49.774;8.650;2024-02-21T02:42:02;18.52;;;5.93;;
22995;SDS011;11664;49.774;8.650;2024-02-21T02:44:27;10.90;;;6.15;;
22995;SDS011;11664;49.774;8.650;2024-02-21T02:46:53;6.18;;;5.65;;
22995;SDS011;11664;49.774;8.650;2024-02-21T02:49:18;7.28;;;5.72;;
22995;SDS011;11664;49.774;8.650;2024-02-21T02:51:44;9.13;;;6.35;;
22995;SDS011;11664;49.774;8.650;2024-02-21T02:54:09;7.38;;;6.55;;
22995;SDS011;11664;49.774;8.650;2024-02-21T02:56:37;7.93;;;7.13;;
22995;SDS011;11664;49.774;8.650;2024-02-21T02:59:02;6.70;;;5.63;;
22995;SDS011;11664;49.774;8.650;2024-02-21T03:01:28;18.48;;;6.35;;
22995;SDS011;11664;49.774;8.650;2024-02-21T03:03:54;8.07;;;7.30;;
22995;SDS011;11664;49.774;8.650;2024-02-21T03:06:19;7.88;;;4.97;;
22995;SDS011;11664;49.774;8.650;2024-02-21T03:08:45;6.75;;;6.07;;
22995;SDS011;11664;49.774;8.650;2024-02-21T03:11:10;11.77;;;6.57;;
22995;SDS011;11664;49.774;8.650;2024-02-21T03:13:36;9.65;;;6.53;;
22995;SDS011;11664;49.774;8.650;2024-02-21T03:16:02;7.72;;;7.05;;
22995;SDS011;11664;49.774;8.650;2024-02-21T03:18:27;13.63;;;7.40;;
22995;SDS011;11664;49.774;8.650;2024-02-21T03:20:53;12.10;;;7.65;;
22995;SDS011;11664;49.774;8.650;2024-02-21T03:23:19;8.43;;;7.15;;
22995;SDS011;11664;49.774;8.650;2024-02-21T03:25:44;8.52;;;7.72;;
22995;SDS011;11664;49.774;8.650;2024-02-21T03:28:10;7.38;;;6.75;;
22995;SDS011;11664;49.774;8.650;2024-02-21T03:30:35;7.18;;;6.47;;
22995;SDS011;11664;49.774;8.650;2024-02-21T03:33:01;11.27;;;6.90;;
22995;SDS011;11664;49.774;8.650;2024-02-21T03:35:27;10.15;;;6.22;;
22995;SDS011;11664;49.774;8.650;2024-02-21T03:37:53;7.68;;;6.85;;
22995;SDS011;11664;49.774;8.650;2024-02-21T03:40:18;7.78;;;7.18;;
22995;SDS011;11664;49.774;8.650;2024-02-21T03:42:44;10.02;;;7.47;;
22995;SDS011;11664;49.774;8.650;2024-02-21T03:45:09;12.00;;;7.72;;
22995;SDS011;11664;49.774;8.650;2024-02-21T03:47:35;13.10;;;9.18;;
22995;SDS011;11664;49.774;8.650;2024-02-21T03:50:00;10.07;;;9.27;;
22995;SDS011;11664;49.774;8.650;2024-02-21T03:52:26;12.05;;;8.75;;
22995;SDS011;11664;49.774;8.650;2024-02-21T03:54:51;12.30;;;9.35;;
22995;SDS011;11664;49.774;8.650;2024-02-21T03:57:17;11.57;;;9.35;;
22995;SDS011;11664;49.774;8.650;2024-02-21T03:59:42;8.63;;;7.03;;
22995;SDS011;11664;49.774;8.650;2024-02-21T04:02:08;11.63;;;10.15;;
22995;SDS011;11664;49.774;8.650;2024-02-21T04:04:34;11.50;;;10.60;;
22995;SDS011;11664;49.774;8.650;2024-02-21T04:07:02;9.57;;;8.70;;
22995;SDS011;11664;49.774;8.650;2024-02-21T04:09:31;8.90;;;6.25;;
22995;SDS011;11664;49.774;8.650;2024-02-21T04:11:58;7.18;;;6.35;;
22995;SDS011;11664;49.774;8.650;2024-02-21T04:14:24;7.38;;;6.35;;
22995;SDS011;11664;49.774;8.650;2024-02-21T04:16:50;6.93;;;5.22;;
22995;SDS011;11664;49.774;8.650;2024-02-21T04:19:15;9.77;;;5.88;;
22995;SDS011;11664;49.774;8.650;2024-02-21T04:21:41;8.48;;;7.05;;
22995;SDS011;11664;49.774;8.650;2024-02-21T04:24:06;14.60;;;6.15;;
22995;SDS011;11664;49.774;8.650;2024-02-21T04:26:32;7.25;;;6.55;;
22995;SDS011;11664;49.774;8.650;2024-02-21T04:28:57;7.47;;;5.32;;
22995;SDS011;11664;49.774;8.650;2024-02-21T04:31:23;6.10;;;5.30;;
22995;SDS011;11664;49.774;8.650;2024-02-21T04:33:48;10.68;;;7.07;;
22995;SDS011;11664;49.774;8.650;2024-02-21T04:36:14;6.93;;;6.22;;
22995;SDS011;11664;49.774;8.650;2024-02-21T04:38:39;8.93;;;5.50;;
22995;SDS011;11664;49.774;8.650;2024-02-21T04:41:05;14.77;;;5.53;;
22995;SDS011;11664;49.774;8.650;2024-02-21T04:43:31;13.40;;;6.80;;
22995;SDS011;11664;49.774;8.650;2024-02-21T04:45:56;8.32;;;6.28;;
22995;SDS011;11664;49.774;8.650;2024-02-21T04:48:22;8.52;;;5.35;;
22995;SDS011;11664;49.774;8.650;2024-02-21T04:50:47;9.68;;;8.23;;
22995;SDS011;11664;49.774;8.650;2024-02-21T04:53:13;10.52;;;7.13;;
22995;SDS011;11664;49.774;8.650;2024-02-21T04:55:38;6.85;;;6.13;;
22995;SDS011;11664;49.774;8.650;2024-02-21T04:58:05;9.60;;;7.13;;
22995;SDS011;11664;49.774;8.650;2024-02-21T05:00:30;8.13;;;7.32;;
22995;SDS011;11664;49.774;8.650;2024-02-21T05:02:56;8.88;;;7.97;;
22995;SDS011;11664;49.774;8.650;2024-02-21T05:05:21;11.57;;;7.00;;
22995;SDS011;11664;49.774;8.650;2024-02-21T05:07:47;7.65;;;6.55;;
22995;SDS011;11664;49.774;8.650;2024-02-21T05:10:12;5.53;;;5.03;;
22995;SDS011;11664;49.774;8.650;2024-02-21T05:12:38;13.30;;;6.25;;
22995;SDS011;11664;49.774;8.650;2024-02-21T05:15:03;7.60;;;6.90;;
22995;SDS011;11664;49.774;8.650;2024-02-21T05:17:29;9.50;;;5.82;;
22995;SDS011;11664;49.774;8.650;2024-02-21T05:19:55;6.40;;;5.80;;
22995;SDS011;11664;49.774;8.650;2024-02-21T05:22:20;7.82;;;4.65;;
22995;SDS011;11664;49.774;8.650;2024-02-21T05:24:46;5.75;;;5.25;;
22995;SDS011;11664;49.774;8.650;2024-02-21T05:27:11;6.80;;;5.53;;
22995;SDS011;11664;49.774;8.650;2024-02-21T05:29:37;5.43;;;4.95;;
22995;SDS011;11664;49.774;8.650;2024-02-21T05:32:02;7.35;;;5.47;;
22995;SDS011;11664;49.774;8.650;2024-02-21T05:34:28;11.77;;;6.35;;
22995;SDS011;11664;49.774;8.650;2024-02-21T05:36:54;6.05;;;5.55;;
22995;SDS011;11664;49.774;8.650;2024-02-21T05:39:19;6.40;;;5.03;;
22995;SDS011;11664;49.774;8.650;2024-02-21T05:41:47;6.03;;;4.97;;
22995;SDS011;11664;49.774;8.650;2024-02-21T05:44:13;5.35;;;4.10;;
22995;SDS011;11664;49.774;8.650;2024-02-21T05:46:39;7.32;;;6.40;;
22995;SDS011;11664;49.774;8.650;2024-02-21T05:49:04;7.25;;;6.53;;
22995;SDS011;11664;49.774;8.650;2024-02-21T05:51:34;5.85;;;4.90;;
22995;SDS011;11664;49.774;8.650;2024-02-21T05:54:00;6.32;;;4.07;;
22995;SDS011;11664;49.774;8.650;2024-02-21T05:56:26;8.18;;;7.05;;
22995;SDS011;11664;49.774;8.650;2024-02-21T05:58:52;8.85;;;8.00;;
22995;SDS011;11664;49.774;8.650;2024-02-21T06:01:17;7.53;;;6.88;;
22995;SDS011;11664;49.774;8.650;2024-02-21T06:03:43;5.43;;;4.93;;
22995;SDS011;11664;49.774;8.650;2024-02-21T06:06:09;7.40;;;6.38;;
22995;SDS011;11664;49.774;8.650;2024-02-21T06:08:34;10.68;;;7.60;;
22995;SDS011;11664;49.774;8.650;2024-02-21T06:11:00;7.45;;;5.95;;
22995;SDS011;11664;49.774;8.650;2024-02-21T06:13:26;10.57;;;5.18;;
22995;SDS011;11664;49.774;8.650;2024-02-21T06:15:51;7.18;;;4.75;;
22995;SDS011;11664;49.774;8.650;2024-02-21T06:18:17;9.70;;;4.88;;
22995;SDS011;11664;49.774;8.650;2024-02-21T06:20:43;9.80;;;5.28;;
22995;SDS011;11664;49.774;8.650;2024-02-21T06:23:09;7.22;;;5.35;;
22995;SDS011;11664;49.774;8.650;2024-02-21T06:25:36;8.82;;;5.68;;
22995;SDS011;11664;49.774;8.650;2024-02-21T06:28:01;7.80;;;6.05;;
22995;SDS011;11664;49.774;8.650;2024-02-21T06:30:27;8.45;;;5.40;;
22995;SDS011;11664;49.774;8.650;2024-02-21T06:32:52;6.90;;;5.05;;
22995;SDS011;11664;49.774;8.650;2024-02-21T06:35:20;7.32;;;6.55;;
22995;SDS011;11664;49.774;8.650;2024-02-21T06:37:46;7.18;;;6.57;;
22995;SDS011;11664;49.774;8.650;2024-02-21T06:40:15;6.43;;;5.88;;
22995;SDS011;11664;49.774;8.650;2024-02-21T06:42:41;7.75;;;6.93;;
22995;SDS011;11664;49.774;8.650;2024-02-21T06:45:07;5.45;;;5.00;;
22995;SDS011;11664;49.774;8.650;2024-02-21T06:47:33;8.10;;;7.10;;
22995;SDS011;11664;49.774;8.650;2024-02-21T06:49:58;7.68;;;5.65;;
22995;SDS011;11664;49.774;8.650;2024-02-21T06:52:24;6.90;;;5.88;;
22995;SDS011;11664;49.774;8.650;2024-02-21T06:54:50;7.13;;;5.22;;
22995;SDS011;11664;49.774;8.650;2024-02-21T06:57:15;8.75;;;5.40;;
22995;SDS011;11664;49.774;8.650;2024-02-21T06:59:41;5.85;;;5.07;;
22995;SDS011;11664;49.774;8.650;2024-02-21T07:02:07;10.65;;;5.53;;
22995;SDS011;11664;49.774;8.650;2024-02-21T07:04:33;6.68;;;5.80;;
22995;SDS011;11664;49.774;8.650;2024-02-21T07:06:59;6.80;;;4.57;;
22995;SDS011;11664;49.774;8.650;2024-02-21T07:09:25;6.68;;;5.05;;
22995;SDS011;11664;49.774;8.650;2024-02-21T07:11:51;6.22;;;5.65;;
22995;SDS011;11664;49.774;8.650;2024-02-21T07:14:17;6.22;;;5.63;;
22995;SDS011;11664;49.774;8.650;2024-02-21T07:16:43;6.88;;;5.43;;
22995;SDS011;11664;49.774;8.650;2024-02-21T07:19:09;6.88;;;4.85;;
22995;SDS011;11664;49.774;8.650;2024-02-21T07:21:34;5.07;;;4.60;;
22995;SDS011;11664;49.774;8.650;2024-02-21T07:24:02;6.03;;;4.57;;
22995;SDS011;11664;49.774;8.650;2024-02-21T07:26:29;5.72;;;5.22;;
22995;SDS011;11664;49.774;8.650;2024-02-21T07:28:54;14.35;;;5.05;;
22995;SDS011;11664;49.774;8.650;2024-02-21T07:31:20;7.63;;;6.22;;
22995;SDS011;11664;49.774;8.650;2024-02-21T07:33:45;5.95;;;5.45;;
22995;SDS011;11664;49.774;8.650;2024-02-21T07:36:11;8.63;;;6.00;;
22995;SDS011;11664;49.774;8.650;2024-02-21T07:38:36;11.55;;;6.57;;
22995;SDS011;11664;49.774;8.650;2024-02-21T07:41:02;7.68;;;5.30;;
22995;SDS011;11664;49.774;8.650;2024-02-21T07:43:29;7.68;;;6.05;;
22995;SDS011;11664;49.774;8.650;2024-02-21T07:45:54;7.13;;;5.57;;
22995;SDS011;11664;49.774;8.650;2024-02-21T07:48:20;11.10;;;6.63;;
22995;SDS011;11664;49.774;8.650;2024-02-21T07:50:49;5.72;;;5.20;;
22995;SDS011;11664;49.774;8.650;2024-02-21T07:53:19;7.13;;;4.88;;
22995;SDS011;11664;49.774;8.650;2024-02-21T07:55:45;6.05;;;5.45;;
22995;SDS011;11664;49.774;8.650;2024-02-21T07:58:11;5.65;;;5.15;;
22995;SDS011;11664;49.774;8.650;2024-02-21T08:00:36;13.90;;;6.05;;
22995;SDS011;11664;49.774;8.650;2024-02-21T08:03:02;7.47;;;6.15;;
22995;SDS011;11664;49.774;8.650;2024-02-21T08:05:28;8.35;;;6.95;;
22995;SDS011;11664;49.774;8.650;2024-02-21T08:07:55;6.00;;;5.40;;
22995;SDS011;11664;49.774;8.650;2024-02-21T08:10:20;4.80;;;4.30;;
22995;SDS011;11664;49.774;8.650;2024-02-21T08:12:46;6.00;;;4.65;;
22995;SDS011;11664;49.774;8.650;2024-02-21T08:15:12;6.25;;;5.65;;
22995;SDS011;11664;49.774;8.650;2024-02-21T08:17:37;8.52;;;7.70;;
22995;SDS011;11664;49.774;8.650;2024-02-21T08:20:06;17.00;;;7.95;;
22995;SDS011;11664;49.774;8.650;2024-02-21T08:22:32;8.82;;;6.47;;
22995;SDS011;11664;49.774;8.650;2024-02-21T08:24:57;5.80;;;5.28;;
22995;SDS011;11664;49.774;8.650;2024-02-21T08:27:23;9.38;;;5.03;;
22995;SDS011;11664;49.774;8.650;2024-02-21T08:29:48;5.65;;;4.80;;
22995;SDS011;11664;49.774;8.650;2024-02-21T08:32:14;5.40;;;5.00;;
22995;SDS011;11664;49.774;8.650;2024-02-21T08:34:39;7.00;;;5.78;;
22995;SDS011;11664;49.774;8.650;2024-02-21T08:37:05;6.82;;;6.22;;
22995;SDS011;11664;49.774;8.650;2024-02-21T08:39:31;5.20;;;4.30;;
22995;SDS011;11664;49.774;8.650;2024-02-21T08:41:56;14.90;;;6.65;;
22995;SDS011;11664;49.774;8.650;2024-02-21T08:44:22;6.82;;;5.70;;
22995;SDS011;11664;49.774;8.650;2024-02-21T08:46:51;7.10;;;5.13;;
22995;SDS011;11664;49.774;8.650;2024-02-21T08:49:17;7.03;;;5.03;;
22995;SDS011;11664;49.774;8.650;2024-02-21T08:51:42;6.22;;;4.53;;
22995;SDS011;11664;49.774;8.650;2024-02-21T08:54:08;15.30;;;4.90;;
22995;SDS011;11664;49.774;8.650;2024-02-21T08:56:34;4.78;;;4.38;;
22995;SDS011;11664;49.774;8.650;2024-02-21T08:59:00;9.98;;;7.53;;
22995;SDS011;11664;49.774;8.650;2024-02-21T09:01:26;15.73;;;14.35;;
22995;SDS011;11664;49.774;8.650;2024-02-21T09:03:52;11.60;;;6.95;;
22995;SDS011;11664;49.774;8.650;2024-02-21T09:06:18;5.72;;;5.22;;
22995;SDS011;11664;49.774;8.650;2024-02-21T09:08:44;6.55;;;4.55;;
22995;SDS011;11664;49.774;8.650;2024-02-21T09:11:10;9.00;;;4.40;;
22995;SDS011;11664;49.774;8.650;2024-02-21T09:13:36;6.15;;;4.57;;
22995;SDS011;11664;49.774;8.650;2024-02-21T09:16:01;9.85;;;8.63;;
22995;SDS011;11664;49.774;8.650;2024-02-21T09:18:28;8.30;;;7.70;;
22995;SDS011;11664;49.774;8.650;2024-02-21T09:20:53;12.73;;;11.73;;
22995;SDS011;11664;49.774;8.650;2024-02-21T09:23:19;9.00;;;8.32;;
22995;SDS011;11664;49.774;8.650;2024-02-21T09:25:45;5.47;;;4.95;;
22995;SDS011;11664;49.774;8.650;2024-02-21T09:28:11;7.22;;;4.65;;
22995;SDS011;11664;49.774;8.650;2024-02-21T09:30:38;6.53;;;5.82;;
22995;SDS011;11664;49.774;8.650;2024-02-21T09:33:03;5.82;;;5.07;;
22995;SDS011;11664;49.774;8.650;2024-02-21T09:35:30;8.05;;;5.28;;
22995;SDS011;11664;49.774;8.650;2024-02-21T09:37:55;4.20;;;3.80;;
22995;SDS011;11664;49.774;8.650;2024-02-21T09:40:21;8.40;;;4.03;;
22995;SDS011;11664;49.774;8.650;2024-02-21T09:42:47;9.85;;;5.50;;
22995;SDS011;11664;49.774;8.650;2024-02-21T09:48:05;4.60;;;3.72;;
22995;SDS011;11664;49.774;8.650;2024-02-21T09:50:39;7.63;;;4.63;;
22995;SDS011;11664;49.774;8.650;2024-02-21T09:53:05;7.43;;;5.03;;
22995;SDS011;11664;49.774;8.650;2024-02-21T09:55:32;5.50;;;5.00;;
22995;SDS011;11664;49.774;8.650;2024-02-21T09:57:59;4.20;;;3.65;;
22995;SDS011;11664;49.774;8.650;2024-02-21T10:00:26;4.32;;;3.92;;
22995;SDS011;11664;49.774;8.650;2024-02-21T10:02:53;8.73;;;4.50;;
22995;SDS011;11664;49.774;8.650;2024-02-21T10:05:19;9.57;;;4.78;;
22995;SDS011;11664;49.774;8.650;2024-02-21T10:07:44;4.63;;;4.25;;
22995;SDS011;11664;49.774;8.650;2024-02-21T10:10:10;6.72;;;3.47;;
22995;SDS011;11664;49.774;8.650;2024-02-21T10:12:36;4.30;;;3.90;;
22995;SDS011;11664;49.774;8.650;2024-02-21T10:15:12;4.35;;;3.95;;
22995;SDS011;11664;49.774;8.650;2024-02-21T10:17:37;6.28;;;3.47;;
22995;SDS011;11664;49.774;8.650;2024-02-21T10:20:07;5.75;;;4.47;;
22995;SDS011;11664;49.774;8.650;2024-02-21T10:22:34;6.35;;;4.30;;
22995;SDS011;11664;49.774;8.650;2024-02-21T10:25:10;8.13;;;3.75;;
22995;SDS011;11664;49.774;8.650;2024-02-21T10:27:37;11.25;;;4.50;;
22995;SDS011;11664;49.774;8.650;2024-02-21T10:30:05;5.82;;;4.28;;
22995;SDS011;11664;49.774;8.650;2024-02-21T10:32:32;7.03;;;5.50;;
22995;SDS011;11664;49.774;8.650;2024-02-21T10:35:01;5.82;;;5.32;;
22995;SDS011;11664;49.774;8.650;2024-02-21T10:37:29;9.02;;;6.03;;
22995;SDS011;11664;49.774;8.650;2024-02-21T10:39:55;5.35;;;4.82;;
22995;SDS011;11664;49.774;8.650;2024-02-21T10:42:22;11.63;;;4.97;;
22995;SDS011;11664;49.774;8.650;2024-02-21T10:44:48;11.77;;;5.47;;
22995;SDS011;11664;49.774;8.650;2024-02-21T10:47:17;4.65;;;4.25;;
22995;SDS011;11664;49.774;8.650;2024-02-21T10:49:46;8.57;;;4.50;;
22995;SDS011;11664;49.774;8.650;2024-02-21T10:52:24;12.55;;;4.70;;
22995;SDS011;11664;49.774;8.650;2024-02-21T10:55:09;5.88;;;4.20;;
22995;SDS011;11664;49.774;8.650;2024-02-21T10:57:38;7.43;;;4.40;;
22995;SDS011;11664;49.774;8.650;2024-02-21T11:00:04;4.60;;;4.15;;
22995;SDS011;11664;49.774;8.650;2024-02-21T11:02:33;12.38;;;5.40;;
22995;SDS011;11664;49.774;8.650;2024-02-21T11:04:59;7.20;;;4.63;;
22995;SDS011;11664;49.774;8.650;2024-02-21T11:07:28;7.53;;;5.05;;
22995;SDS011;11664;49.774;8.650;2024-02-21T11:09:55;8.30;;;4.85;;
22995;SDS011;11664;49.774;8.650;2024-02-21T11:12:21;5.45;;;4.55;;
22995;SDS011;11664;49.774;8.650;2024-02-21T11:14:47;7.97;;;4.20;;
22995;SDS011;11664;49.774;8.650;2024-02-21T11:17:16;5.72;;;5.22;;
22995;SDS011;11664;49.774;8.650;2024-02-21T11:19:42;5.18;;;4.72;;
22995;SDS011;11664;49.774;8.650;2024-02-21T11:22:14;8.95;;;5.18;;
22995;SDS011;11664;49.774;8.650;2024-02-21T11:24:41;4.30;;;3.92;;
22995;SDS011;11664;49.774;8.650;2024-02-21T11:29:44;4.88;;;4.43;;
22995;SDS011;11664;49.774;8.650;2024-02-21T11:32:16;4.15;;;3.75;;
22995;SDS011;11664;49.774;8.650;2024-02-21T11:34:54;3.85;;;3.55;;
22995;SDS011;11664;49.774;8.650;2024-02-21T11:37:20;9.38;;;4.03;;
22995;SDS011;11664;49.774;8.650;2024-02-21T11:39:46;7.20;;;4.20;;
22995;SDS011;11664;49.774;8.650;2024-02-21T11:42:11;7.70;;;4.05;;
22995;SDS011;11664;49.774;8.650;2024-02-21T11:44:37;4.07;;;3.67;;
22995;SDS011;11664;49.774;8.650;2024-02-21T11:47:04;8.73;;;3.50;;
22995;SDS011;11664;49.774;8.650;2024-02-21T11:49:35;5.13;;;4.10;;
22995;SDS011;11664;49.774;8.650;2024-02-21T11:54:29;8.50;;;3.80;;
22995;SDS011;11664;49.774;8.650;2024-02-21T11:56:55;4.13;;;3.25;;
22995;SDS011;11664;49.774;8.650;2024-02-21T11:59:21;6.25;;;3.97;;
22995;SDS011;11664;49.774;8.650;2024-02-21T12:01:47;4.72;;;3.65;;
22995;SDS011;11664;49.774;8.650;2024-02-21T12:04:13;6.72;;;4.07;;
22995;SDS011;11664;49.774;8.650;2024-02-21T12:06:42;15.52;;;4.05;;
22995;SDS011;11664;49.774;8.650;2024-02-21T12:09:08;13.70;;;4.82;;
22995;SDS011;11664;49.774;8.650;2024-02-21T12:11:34;4.13;;;3.72;;
22995;SDS011;11664;49.774;8.650;2024-02-21T12:14:03;5.65;;;4.00;;
22995;SDS011;11664;49.774;8.650;2024-02-21T12:16:33;3.85;;;3.55;;
22995;SDS011;11664;49.774;8.650;2024-02-21T12:18:59;6.80;;;3.90;;
22995;SDS011;11664;49.774;8.650;2024-02-21T12:21:34;5.40;;;3.92;;
22995;SDS011;11664;49.774;8.650;2024-02-21T12:26:46;6.70;;;4.22;;
22995;SDS011;11664;49.774;8.650;2024-02-21T12:29:12;7.00;;;4.38;;
22995;SDS011;11664;49.774;8.650;2024-02-21T12:31:37;10.25;;;4.47;;
22995;SDS011;11664;49.774;8.650;2024-02-21T12:34:04;4.55;;;3.45;;
22995;SDS011;11664;49.774;8.650;2024-02-21T12:36:30;4.32;;;3.38;;
22995;SDS011;11664;49.774;8.650;2024-02-21T12:39:00;4.85;;;3.78;;
22995;SDS011;11664;49.774;8.650;2024-02-21T12:41:28;5.22;;;3.33;;
22995;SDS011;11664;49.774;8.650;2024-02-21T12:43:54;3.90;;;3.47;;
22995;SDS011;11664;49.774;8.650;2024-02-21T12:46:21;4.05;;;3.30;;
22995;SDS011;11664;49.774;8.650;2024-02-21T12:48:47;4.47;;;3.20;;
22995;SDS011;11664;49.774;8.650;2024-02-21T12:51:12;3.33;;;3.05;;
22995;SDS011;11664;49.774;8.650;2024-02-21T12:53:38;4.07;;;3.78;;
22995;SDS011;11664;49.774;8.650;2024-02-21T12:56:04;3.78;;;3.25;;
22995;SDS011;11664;49.774;8.650;2024-02-21T12:58:32;7.65;;;3.33;;
22995;SDS011;11664;49.774;8.650;2024-02-21T13:00:58;5.45;;;3.25;;
22995;SDS011;11664;49.774;8.650;2024-02-21T13:03:23;5.20;;;3.25;;
22995;SDS011;11664;49.774;8.650;2024-02-21T13:05:49;3.78;;;3.38;;
22995;SDS011;11664;49.774;8.650;2024-02-21T13:08:14;9.35;;;3.20;;
22995;SDS011;11664;49.774;8.650;2024-02-21T13:10:40;4.80;;;3.28;;
22995;SDS011;11664;49.774;8.650;2024-02-21T13:13:05;4.80;;;3.08;;
22995;SDS011;11664;49.774;8.650;2024-02-21T13:15:31;4.57;;;3.50;;
22995;SDS011;11664;49.774;8.650;2024-02-21T13:17:57;7.05;;;3.05;;
22995;SDS011;11664;49.774;8.650;2024-02-21T13:20:23;5.22;;;3.17;;
22995;SDS011;11664;49.774;8.650;2024-02-21T13:22:50;5.40;;;3.90;;
22995;SDS011;11664;49.774;8.650;2024-02-21T13:25:15;4.32;;;3.35;;
22995;SDS011;11664;49.774;8.650;2024-02-21T13:27:43;3.83;;;3.40;;
22995;SDS011;11664;49.774;8.650;2024-02-21T13:30:09;3.65;;;3.35;;
22995;SDS011;11664;49.774;8.650;2024-02-21T13:32:36;4.47;;;3.65;;
22995;SDS011;11664;49.774;8.650;2024-02-21T13:35:01;5.82;;;3.10;;
22995;SDS011;11664;49.774;8.650;2024-02-21T13:37:28;6.25;;;3.72;;
22995;SDS011;11664;49.774;8.650;2024-02-21T13:39:54;3.72;;;3.40;;
22995;SDS011;11664;49.774;8.650;2024-02-21T13:42:19;3.60;;;2.90;;
22995;SDS011;11664;49.774;8.650;2024-02-21T13:44:45;4.80;;;3.55;;
22995;SDS011;11664;49.774;8.650;2024-02-21T13:47:12;3.88;;;3.42;;
22995;SDS011;11664;49.774;8.650;2024-02-21T13:49:39;3.60;;;3.30;;
22995;SDS011;11664;49.774;8.650;2024-02-21T13:52:05;5.32;;;3.38;;
22995;SDS011;11664;49.774;8.650;2024-02-21T13:54:31;4.75;;;3.05;;
22995;SDS011;11664;49.774;8.650;2024-02-21T13:56:57;6.53;;;3.33;;
22995;SDS011;11664;49.774;8.650;2024-02-21T13:59:22;3.75;;;3.28;;
22995;SDS011;11664;49.774;8.650;2024-02-21T14:01:48;4.03;;;3.10;;
22995;SDS011;11664;49.774;8.650;2024-02-21T14:04:13;3.35;;;3.13;;
22995;SDS011;11664;49.774;8.650;2024-02-21T14:06:39;5.85;;;3.22;;
22995;SDS011;11664;49.774;8.650;2024-02-21T14:09:08;4.90;;;3.58;;
22995;SDS011;11664;49.774;8.650;2024-02-21T14:11:34;5.97;;;3.13;;
22995;SDS011;11664;49.774;8.650;2024-02-21T14:14:00;3.42;;;3.13;;
22995;SDS011;11664;49.774;8.650;2024-02-21T14:16:26;3.75;;;3.25;;
22995;SDS011;11664;49.774;8.650;2024-02-21T14:18:51;4.40;;;3.10;;
22995;SDS011;11664;49.774;8.650;2024-02-21T14:21:19;5.60;;;3.42;;
22995;SDS011;11664;49.774;8.650;2024-02-21T14:23:44;3.47;;;3.17;;
22995;SDS011;11664;49.774;8.650;2024-02-21T14:26:10;4.65;;;3.38;;
22995;SDS011;11664;49.774;8.650;2024-02-21T14:28:37;4.72;;;3.08;;
22995;SDS011;11664;49.774;8.650;2024-02-21T14:31:02;4.88;;;3.80;;
22995;SDS011;11664;49.774;8.650;2024-02-21T14:33:31;5.93;;;3.55;;
22995;SDS011;11664;49.774;8.650;2024-02-21T14:35:56;6.40;;;3.78;;
22995;SDS011;11664;49.774;8.650;2024-02-21T14:38:22;4.50;;;3.30;;
22995;SDS011;11664;49.774;8.650;2024-02-21T14:40:48;6.70;;;3.30;;
22995;SDS011;11664;49.774;8.650;2024-02-21T14:43:14;6.97;;;3.25;;
22995;SDS011;11664;49.774;8.650;2024-02-21T14:45:39;3.33;;;3.00;;
22995;SDS011;11664;49.774;8.650;2024-02-21T14:48:05;7.13;;;3.08;;
22995;SDS011;11664;49.774;8.650;2024-02-21T14:50:31;8.15;;;3.85;;